Airfield :
LOGIN :

Register | Disclaimer

   EN    FR    IT 

 










Legend :    VFR   Marginal VFR   IFR   Intensive IFR   Very Intensive IFR
Visi :
Ceiling :
>= 8 km
>= 3000ft
5 to 8 km
1000 to 3000 ft
1500m to 5 km
500 to 1000 ft
800 to 1500m
200 to 500 ft
< 800m
< 200 ft
Symbols :   Thunderstorms  Fog  Heavy snow  Heavy precipitations  Wind > 20 kt
SIGMETs :     Misc.  Thunderstorms  Icing  Turbulence  Mountain Waves  Volcanic Ashes






- Airport Elevation : 13 ft
- IATA code : LYX


EGMD - Lydd

CURRENT METAR :
  • 060450Z AUTO 23022KT 5000 -DZ OVC003/// 11/11 Q1011

EXPIRED METARs :
  • 060420Z AUTO 23022KT 4400 -RA OVC003/// 11/11 Q1011
  • 060350Z AUTO 23022KT 4700 -RA OVC003/// 11/11 Q1011 RERA
  • 060320Z AUTO 23022KT 6000 -RA OVC004/// 11/11 Q1011
  • 060250Z AUTO 23023KT 7000 OVC004/// 11/11 Q1012
  • 060220Z AUTO 23024KT 4500 -RA OVC004/// 11/10 Q1012

TAF TAF EGMD
Valid from the 06 at 03:00 until the 06 at 12:00 UTC


060158Z 0603/0612 23022KT 9999 BKN010
TEMPO 0603/0612 7000 -RADZ BKN004
PROB40
TEMPO 0603/0612 3000 RADZ
PROB30
TEMPO 0603/0612 24025G35KT
ATIS : +44 1797 322 422



MET'MAP, your aeronautical weather chart ! - Copyright ORBIFLY December 2007 - Disclaimer

ORBIFLY MET'MAP TEAM :

Programming & Development : Alexandra Zaïnal
Concept & original design : Baudouin d'Aumeries
Assistance for programming : Marc-Olivier Méhu
Technical & hardware support : Manuel Goepfert

Contact : metmap@orbifly.com




SOURCES & CREDITS :

   NOAA